Time;durP1;ratioP1;P1;durP2;ratioP2;P2;SDS_P1;SDS_P2;PMS_P1;PMS_P2;Temp;Humidity;BMP_temperature;BMP_pressure;BME280_temperature;BME280_humidity;BME280_pressure;Samples;Min_cycle;Max_cycle;Signal;HPM_P1;HPM_P2
2022/01/12 00:00:19;;;;;;;31.85;17.70;;;;;;;1.70;100.00;103491.66;5354540;27;20068;-87
2022/01/12 00:02:52;;;;;;;21.85;13.05;;;;;;;1.67;100.00;103504.88;5353336;27;20099;-86
2022/01/12 00:05:23;;;;;;;21.95;14.45;;;;;;;1.74;100.00;103513.56;5353108;27;20040;-86
2022/01/12 00:07:55;;;;;;;25.55;15.93;;;;;;;1.81;100.00;103513.47;5352380;27;20110;-86
2022/01/12 00:10:26;;;;;;;22.48;14.93;;;;;;;1.87;100.00;103512.50;5354085;27;20410;-86
2022/01/12 00:12:58;;;;;;;22.65;13.85;;;;;;;1.85;100.00;103519.53;5355201;27;20027;-86
2022/01/12 00:15:29;;;;;;;25.35;15.20;;;;;;;1.90;100.00;103533.53;5357940;27;20028;-86
2022/01/12 00:18:01;;;;;;;23.17;14.93;;;;;;;1.93;100.00;103532.59;5355078;27;20035;-86
2022/01/12 00:20:33;;;;;;;22.60;13.45;;;;;;;1.72;100.00;103497.78;5355940;27;20168;-87
2022/01/12 00:23:04;;;;;;;25.52;16.25;;;;;;;1.92;100.00;103528.25;5358194;27;20031;-86
2022/01/12 00:34:10;;;;;;;22.88;15.05;;;;;;;1.96;100.00;103527.28;5360825;27;20040;-86
2022/01/12 00:36:43;;;;;;;26.02;15.77;;;;;;;1.97;100.00;103537.81;5364196;27;20026;-86
2022/01/12 00:39:14;;;;;;;28.98;16.60;;;;;;;1.97;100.00;103534.31;5364583;27;20039;-86
2022/01/12 00:41:47;;;;;;;24.75;14.40;;;;;;;1.96;100.00;103545.72;5362516;27;20000;-86
2022/01/12 00:44:23;;;;;;;28.33;16.88;;;;;;;1.98;100.00;103550.09;5362965;27;20027;-87
2022/01/12 00:46:55;;;;;;;26.52;15.30;;;;;;;1.96;100.00;103564.16;5362416;27;20066;-86
2022/01/12 00:49:27;;;;;;;23.90;15.80;;;;;;;1.96;100.00;103565.00;5363377;27;20073;-86
2022/01/12 00:51:58;;;;;;;23.13;15.10;;;;;;;1.86;100.00;103552.88;5359913;27;20035;-85
2022/01/12 00:54:29;;;;;;;30.73;18.25;;;;;;;1.95;100.00;103572.97;5360016;27;20059;-86
2022/01/12 00:57:01;;;;;;;25.92;17.02;;;;;;;1.84;100.00;103573.06;5355380;27;20474;-87
2022/01/12 00:59:32;;;;;;;29.55;18.23;;;;;;;1.91;100.00;103579.13;5353684;27;20023;-87
2022/01/12 01:02:04;;;;;;;34.13;20.10;;;;;;;1.84;100.00;103583.59;5356817;27;20035;-87
2022/01/12 01:04:35;;;;;;;31.25;18.52;;;;;;;1.78;100.00;103581.91;5353410;27;20456;-87
2022/01/12 01:07:07;;;;;;;30.88;18.85;;;;;;;1.73;100.00;103575.84;5353767;27;20427;-87
2022/01/12 01:09:44;;;;;;;39.05;21.30;;;;;;;1.77;100.00;103593.34;5353965;27;20099;-87
2022/01/12 01:12:15;;;;;;;35.20;20.05;;;;;;;1.51;100.00;103567.34;5355326;27;20082;-87
2022/01/12 01:15:03;;;;;;;39.58;22.10;;;;;;;1.54;100.00;103580.44;5355935;27;20020;-88
2022/01/12 01:25:51;;;;;;;40.25;23.85;;;;;;;1.49;100.00;103577.88;5352012;27;20075;-88
2022/01/12 01:28:22;;;;;;;40.70;22.75;;;;;;;1.48;100.00;103575.25;5351958;27;20034;-87
2022/01/12 01:30:54;;;;;;;45.58;26.95;;;;;;;1.55;100.00;103576.06;5351985;27;20047;-88
2022/01/12 01:33:27;;;;;;;44.17;23.88;;;;;;;1.39;100.00;103565.69;5352103;27;20024;-87
2022/01/12 01:35:58;;;;;;;49.28;26.98;;;;;;;1.39;100.00;103578.84;5350729;27;20030;-87
2022/01/12 01:38:30;;;;;;;49.25;26.65;;;;;;;1.40;100.00;103593.72;5345570;27;20031;-88
2022/01/12 01:41:02;;;;;;;50.80;27.08;;;;;;;1.47;100.00;103591.91;5350951;27;20032;-88
2022/01/12 01:54:45;;;;;;;46.50;25.38;;;;;;;1.43;100.00;103598.97;5350377;27;20035;-88
2022/01/12 01:57:16;;;;;;;40.60;24.95;;;;;;;1.29;100.00;103585.09;5348412;27;20020;-87
2022/01/12 01:59:47;;;;;;;46.63;28.02;;;;;;;1.21;100.00;103577.28;5347936;27;20026;-88
2022/01/12 02:02:19;;;;;;;46.90;27.30;;;;;;;1.10;100.00;103571.25;5342994;27;20080;-87
2022/01/12 02:04:50;;;;;;;50.80;28.65;;;;;;;1.17;100.00;103561.53;5348378;27;20036;-87
2022/01/12 02:07:22;;;;;;;53.50;28.98;;;;;;;1.17;100.00;103557.16;5349052;27;20062;-87
2022/01/12 02:09:53;;;;;;;47.95;26.60;;;;;;;1.12;100.00;103561.56;5347840;27;20016;-87
2022/01/12 02:12:27;;;;;;;52.53;28.38;;;;;;;1.22;100.00;103571.13;5349387;27;20165;-86
2022/01/12 02:15:02;;;;;;;52.08;27.90;;;;;;;1.19;100.00;103565.88;5348841;27;20094;-86
2022/01/12 02:17:40;;;;;;;53.30;26.45;;;;;;;1.12;100.00;103559.84;5348051;27;20031;-87
2022/01/12 02:35:08;;;;;;;57.95;30.77;;;;;;;1.28;100.00;103559.66;5348343;27;20544;-88
2022/01/12 02:39:44;;;;;;;51.25;26.90;;;;;;;1.25;100.00;103604.41;5346138;27;20368;-87
2022/01/12 02:40:08;;;;;;;50.05;25.88;;;;;;;1.28;100.00;103602.63;5348373;27;20051;-86
2022/01/12 02:42:44;;;;;;;51.80;27.85;;;;;;;1.34;100.00;103600.84;5348305;27;20035;-86
2022/01/12 02:53:42;;;;;;;45.65;27.20;;;;;;;1.39;100.00;103609.56;5353062;27;20073;-86
2022/01/12 02:56:20;;;;;;;51.05;28.02;;;;;;;1.39;100.00;103606.91;5353275;27;20034;-87
2022/01/12 02:58:52;;;;;;;49.00;28.65;;;;;;;1.59;100.00;103620.72;5348523;27;20016;-86
2022/01/12 03:04:01;;;;;;;51.97;28.88;;;;;;;1.38;100.00;103582.34;5351748;27;20449;-87
2022/01/12 03:06:36;;;;;;;;;;;;;;;1.55;100.00;103628.69;5330113;28;20031;-87
2022/01/12 03:09:09;;;;;;;54.45;27.08;;;;;;;1.48;100.00;103636.63;5328284;28;19912;-88
2022/01/12 03:11:41;;;;;;;52.42;27.02;;;;;;;1.34;100.00;103624.50;5329830;28;20028;-87
2022/01/12 03:14:12;;;;;;;50.40;28.67;;;;;;;1.39;100.00;103646.38;5329786;28;20045;-88
2022/01/12 03:16:44;;;;;;;51.28;27.85;;;;;;;1.28;100.00;103628.03;5311477;28;20479;-88
2022/01/12 03:19:15;;;;;;;52.10;28.83;;;;;;;1.42;100.00;103639.31;5312063;28;20115;-87
2022/01/12 03:21:47;;;;;;;51.67;28.75;;;;;;;1.49;100.00;103661.16;5331261;28;20051;-87
2022/01/12 03:24:18;;;;;;;54.72;29.52;;;;;;;1.42;100.00;103663.00;5311766;28;20020;-87
2022/01/12 03:26:49;;;;;;;50.90;28.25;;;;;;;1.39;100.00;103659.53;5328763;28;20039;-87
2022/01/12 03:29:21;;;;;;;52.78;27.73;;;;;;;1.42;100.00;103663.00;5311573;28;20054;-87
2022/01/12 03:31:56;;;;;;;53.17;27.30;;;;;;;1.54;100.00;103664.63;5329299;28;20044;-87
2022/01/12 03:34:31;;;;;;;57.97;29.23;;;;;;;1.51;100.00;103662.03;5329590;28;20090;-87
2022/01/12 03:37:28;;;;;;;55.80;27.55;;;;;;;1.43;100.00;103658.59;5329431;28;20123;-87
2022/01/12 03:39:59;;;;;;;52.67;28.57;;;;;;;1.45;100.00;103654.19;5328891;28;20028;-87
2022/01/12 03:42:31;;;;;;;57.53;29.13;;;;;;;1.54;100.00;103654.09;5329857;28;20035;-86
2022/01/12 03:45:03;;;;;;;51.20;28.13;;;;;;;1.42;100.00;103651.59;5330098;28;20055;-86
2022/01/12 03:47:34;;;;;;;54.28;28.40;;;;;;;1.49;100.00;103650.63;5302831;28;20419;-87
2022/01/12 03:50:06;;;;;;;60.83;30.42;;;;;;;1.47;100.00;103642.78;5312085;28;20020;-87
2022/01/12 03:52:37;;;;;;;60.47;30.90;;;;;;;1.43;100.00;103630.53;5328837;28;20078;-87
2022/01/12 03:55:09;;;;;;;60.83;30.85;;;;;;;1.41;100.00;103632.31;5311466;28;20035;-87
2022/01/12 03:57:40;;;;;;;58.85;31.48;;;;;;;1.47;100.00;103655.94;5311293;28;20547;-87
2022/01/12 04:00:12;;;;;;;63.63;31.60;;;;;;;1.44;100.00;103655.97;5328668;28;20020;-87
2022/01/12 04:02:43;;;;;;;63.30;33.28;;;;;;;1.41;100.00;103684.91;5308489;28;20024;-87
2022/01/12 04:08:19;;;;;;;63.97;31.08;;;;;;;1.40;100.00;103682.28;5311814;28;20025;-87
2022/01/12 04:11:00;;;;;;;63.65;30.60;;;;;;;1.51;100.00;103683.94;5311085;28;20396;-87
2022/01/12 04:13:32;;;;;;;61.08;30.38;;;;;;;1.43;100.00;103674.38;5328485;28;20027;-86
2022/01/12 04:16:06;;;;;;;67.53;33.22;;;;;;;1.48;100.00;103678.72;5307457;28;20020;-87
2022/01/12 04:18:38;;;;;;;70.97;33.58;;;;;;;1.48;100.00;103685.75;5328318;28;20024;-87
2022/01/12 04:21:11;;;;;;;74.53;32.90;;;;;;;1.74;100.00;103671.47;5311935;28;20530;-87
2022/01/12 04:23:43;;;;;;;79.00;36.53;;;;;;;1.40;100.00;103656.00;5329105;28;20060;-87
2022/01/12 04:26:17;;;;;;;85.63;37.33;;;;;;;1.63;100.00;103675.06;5329797;28;20024;-86
2022/01/12 04:28:48;;;;;;;86.68;38.78;;;;;;;1.53;100.00;103675.19;5323246;28;20387;-88
2022/01/12 04:31:20;;;;;;;80.28;38.88;;;;;;;1.49;100.00;103682.19;5329862;28;20070;-87
2022/01/12 04:33:52;;;;;;;77.40;34.67;;;;;;;1.69;100.00;103680.25;5310650;28;20122;-87
2022/01/12 04:36:23;;;;;;;75.10;35.67;;;;;;;1.62;100.00;103662.78;5328478;28;20165;-87
2022/01/12 04:38:54;;;;;;;81.32;37.65;;;;;;;1.61;100.00;103666.28;5327734;28;20040;-87
2022/01/12 04:41:26;;;;;;;80.35;39.15;;;;;;;1.57;100.00;103680.38;5329753;28;20031;-87
2022/01/12 04:43:58;;;;;;;80.68;38.03;;;;;;;1.57;100.00;103675.13;5329405;28;20460;-87
2022/01/12 04:46:37;;;;;;;71.78;34.80;;;;;;;1.60;100.00;103668.97;5328645;28;20028;-87
2022/01/12 04:51:59;;;;;;;78.65;35.85;;;;;;;1.60;100.00;103672.47;5327370;28;20040;-87
2022/01/12 04:54:30;;;;;;;74.22;38.33;;;;;;;1.46;100.00;103669.09;5328761;27;20099;-87
2022/01/12 04:57:02;;;;;;;74.20;36.95;;;;;;;1.46;100.00;103648.06;5310229;28;20369;-87
2022/01/12 04:59:37;;;;;;;77.28;39.47;;;;;;;1.46;100.00;103661.22;5327819;28;20032;-87
2022/01/12 05:06:24;;;;;;;74.45;36.97;;;;;;;1.44;100.00;103655.09;5328016;28;20032;-87
2022/01/12 05:08:13;;;;;;;83.10;36.50;;;;;;;1.67;100.00;103668.88;5325143;28;20610;-88
2022/01/12 05:13:37;;;;;;;82.03;39.58;;;;;;;1.75;100.00;103660.03;5323946;27;21686;-87
2022/01/12 05:16:12;;;;;;;81.43;37.35;;;;;;;1.77;100.00;103661.78;5310417;28;20039;-87
2022/01/12 05:18:45;;;;;;;88.40;40.75;;;;;;;1.85;100.00;103670.44;5327309;28;20055;-87
2022/01/12 05:21:19;;;;;;;88.20;38.67;;;;;;;1.89;100.00;103661.66;5325930;28;20022;-87
2022/01/12 05:23:50;;;;;;;86.25;38.13;;;;;;;1.91;100.00;103663.38;5327326;28;20020;-87
2022/01/12 05:26:22;;;;;;;90.95;39.75;;;;;;;1.95;100.00;103665.97;5309359;28;20031;-87
2022/01/12 05:28:53;;;;;;;96.55;42.13;;;;;;;1.95;100.00;103657.19;5327421;28;20095;-87
2022/01/12 05:31:24;;;;;;;102.38;43.42;;;;;;;2.15;100.00;103668.34;5327384;27;20032;-87
2022/01/12 05:33:59;;;;;;;101.25;42.38;;;;;;;2.07;100.00;103662.31;5322114;28;20024;-88
2022/01/12 05:36:32;;;;;;;100.40;42.25;;;;;;;2.04;100.00;103678.16;5307621;28;20481;-88
2022/01/12 05:39:03;;;;;;;88.85;39.13;;;;;;;2.12;100.00;103680.69;5324954;28;20035;-87
2022/01/12 05:41:35;;;;;;;92.68;42.53;;;;;;;1.95;100.00;103687.03;5326095;28;20028;-87
2022/01/12 05:44:08;;;;;;;93.78;43.05;;;;;;;1.85;100.00;103698.53;5324193;28;20035;-87
2022/01/12 05:46:42;;;;;;;92.68;42.40;;;;;;;1.70;100.00;103691.66;5305536;28;20097;-87
2022/01/12 05:52:04;;;;;;;89.22;39.83;;;;;;;1.60;100.00;103696.16;5326094;28;20071;-86
2022/01/12 05:54:35;;;;;;;83.45;39.50;;;;;;;1.64;100.00;103691.72;5322987;28;20036;-87
2022/01/12 05:57:07;;;;;;;81.47;40.35;;;;;;;1.60;100.00;103679.50;5326479;28;20429;-87
2022/01/12 05:59:38;;;;;;;90.10;41.42;;;;;;;1.54;100.00;103684.81;5307646;28;20105;-87
2022/01/12 06:02:10;;;;;;;85.28;41.45;;;;;;;1.50;100.00;103676.94;5305018;28;20032;-87
2022/01/12 06:04:41;;;;;;;84.60;42.67;;;;;;;1.50;100.00;103694.47;5316684;27;20042;-87
2022/01/12 06:07:13;;;;;;;91.20;39.45;;;;;;;1.51;100.00;103685.72;5350192;27;20016;-88
2022/01/12 06:09:44;;;;;;;92.50;41.05;;;;;;;1.50;100.00;103682.19;5344736;27;20015;-87
2022/01/12 06:12:16;;;;;;;86.80;39.20;;;;;;;1.62;100.00;103702.25;5351377;27;20095;-87
2022/01/12 06:14:48;;;;;;;97.10;41.20;;;;;;;1.53;100.00;103697.09;5354635;27;20417;-87
2022/01/12 06:17:19;;;;;;;89.22;39.45;;;;;;;1.41;100.00;103657.75;5359767;27;20023;-87
2022/01/12 06:19:52;;;;;;;84.30;39.20;;;;;;;1.60;100.00;103703.19;5361392;27;20046;-88
2022/01/12 06:22:24;;;;;;;95.13;42.38;;;;;;;1.45;100.00;103699.78;5360243;27;20028;-87
2022/01/12 06:24:57;;;;;;;96.70;42.40;;;;;;;1.63;100.00;103722.44;5357497;27;20016;-87
2022/01/12 06:27:31;;;;;;;102.97;42.58;;;;;;;1.56;100.00;103726.00;5355550;27;20020;-86
2022/01/12 06:33:07;;;;;;;104.53;43.03;;;;;;;1.53;100.00;103738.31;5342289;27;20027;-86
2022/01/12 06:35:44;;;;;;;92.47;41.22;;;;;;;1.49;100.00;103737.44;5364142;27;20081;-86
2022/01/12 06:38:16;;;;;;;91.10;39.83;;;;;;;1.57;100.00;103746.16;5359944;27;20024;-86
2022/01/12 06:40:47;;;;;;;106.22;41.22;;;;;;;1.54;100.00;103750.56;5355463;27;20016;-88
2022/01/12 06:43:19;;;;;;;107.47;42.85;;;;;;;1.39;100.00;103733.19;5350431;27;20028;-88
2022/01/12 06:45:50;;;;;;;92.07;40.03;;;;;;;1.46;100.00;103741.00;5348560;27;20026;-87
2022/01/12 06:48:22;;;;;;;96.05;40.28;;;;;;;1.67;100.00;103763.63;5350468;27;20034;-87
2022/01/12 06:50:53;;;;;;;108.95;44.22;;;;;;;1.39;100.00;103736.66;5348546;27;20028;-88
2022/01/12 06:53:25;;;;;;;106.75;44.47;;;;;;;1.60;100.00;103751.41;5347420;27;20023;-87
2022/01/12 06:55:56;;;;;;;99.00;43.70;;;;;;;1.70;100.00;103757.44;5343833;27;20035;-88
2022/01/12 06:58:28;;;;;;;106.88;43.22;;;;;;;1.62;100.00;103756.66;5348114;27;20027;-88
2022/01/12 07:01:00;;;;;;;105.63;43.05;;;;;;;1.63;100.00;103767.16;5349027;27;20050;-88
2022/01/12 07:03:31;;;;;;;121.10;44.10;;;;;;;1.57;100.00;103761.09;5349237;27;20020;-88
2022/01/12 07:06:02;;;;;;;108.53;43.63;;;;;;;1.50;100.00;103752.34;5348465;27;20506;-88
2022/01/12 07:08:36;;;;;;;107.13;43.20;;;;;;;1.66;100.00;103767.13;5349864;27;20082;-85
2022/01/12 07:11:07;;;;;;;118.13;43.97;;;;;;;1.34;100.00;103742.84;5347492;27;20035;-86
2022/01/12 07:13:39;;;;;;;112.55;44.17;;;;;;;1.49;100.00;103771.66;5349399;27;20040;-87
2022/01/12 07:16:11;;;;;;;118.70;43.78;;;;;;;1.54;100.00;103785.63;5346758;27;20023;-85
2022/01/12 07:18:42;;;;;;;107.57;43.58;;;;;;;1.49;100.00;103774.28;5337755;27;20035;-85
2022/01/12 07:21:14;;;;;;;105.80;44.63;;;;;;;1.55;100.00;103765.50;5343458;27;20019;-85
2022/01/12 07:23:45;;;;;;;118.75;44.63;;;;;;;1.47;100.00;103757.63;5347775;27;20020;-85
2022/01/12 07:26:17;;;;;;;111.35;44.38;;;;;;;1.66;100.00;103787.31;5345036;27;20023;-84
2022/01/12 07:28:49;;;;;;;106.03;42.72;;;;;;;1.55;100.00;103776.88;5344802;27;20065;-85
2022/01/12 07:31:21;;;;;;;108.60;44.08;;;;;;;1.67;100.00;103789.94;5345223;27;20027;-85
2022/01/12 07:33:54;;;;;;;101.03;44.17;;;;;;;1.68;100.00;103796.06;5329476;27;20089;-86
2022/01/12 07:36:25;;;;;;;114.65;42.75;;;;;;;1.53;100.00;103778.66;5330650;27;20103;-85
2022/01/12 07:38:59;;;;;;;118.05;42.60;;;;;;;1.62;100.00;103807.50;5351023;27;20536;-87
2022/01/12 07:41:42;;;;;;;120.60;41.83;;;;;;;1.63;100.00;103813.63;5352261;27;20471;-88
2022/01/12 07:44:13;;;;;;;115.18;41.25;;;;;;;1.59;100.00;103815.44;5350581;27;20065;-86
2022/01/12 07:46:45;;;;;;;117.68;42.65;;;;;;;1.59;100.00;103822.44;5350210;27;20031;-84
2022/01/12 07:49:16;;;;;;;126.30;42.58;;;;;;;1.59;100.00;103827.72;5367995;27;20111;-85
2022/01/12 07:51:48;;;;;;;120.25;41.90;;;;;;;1.57;100.00;103821.59;5338303;27;20059;-86
2022/01/12 07:54:20;;;;;;;129.25;42.92;;;;;;;1.61;100.00;103828.56;5350741;27;20100;-86
2022/01/12 07:56:51;;;;;;;119.63;44.28;;;;;;;1.45;100.00;103807.63;5349352;27;20018;-86
2022/01/12 07:59:23;;;;;;;120.80;43.40;;;;;;;1.47;100.00;103812.88;5349351;27;20034;-86
2022/01/12 08:01:54;;;;;;;121.03;43.15;;;;;;;1.60;100.00;103838.22;5340000;27;20024;-87
2022/01/12 08:04:25;;;;;;;116.38;42.88;;;;;;;1.68;100.00;103853.97;5344863;27;20131;-86
2022/01/12 08:06:57;;;;;;;120.60;45.75;;;;;;;1.58;100.00;103839.13;5343721;27;20015;-85
2022/01/12 08:09:28;;;;;;;120.80;44.03;;;;;;;1.66;100.00;103851.31;5348684;27;20081;-86
2022/01/12 08:12:00;;;;;;;109.65;43.67;;;;;;;1.64;100.00;103847.84;5347435;27;20036;-85
2022/01/12 08:14:31;;;;;;;121.72;44.35;;;;;;;1.53;100.00;103833.91;5350112;27;20280;-85
2022/01/12 08:17:03;;;;;;;134.35;44.67;;;;;;;1.64;100.00;103861.00;5349163;27;20015;-85
2022/01/12 08:19:37;;;;;;;137.57;44.63;;;;;;;1.77;100.00;103882.88;5349207;27;20106;-85
2022/01/12 08:22:09;;;;;;;134.20;45.20;;;;;;;1.83;100.00;103885.44;5349372;27;20089;-86
2022/01/12 08:24:40;;;;;;;156.55;45.80;;;;;;;1.84;100.00;103889.81;5350262;27;20387;-86
2022/01/12 08:27:12;;;;;;;144.93;45.40;;;;;;;1.87;100.00;103884.50;5349749;27;20118;-86
2022/01/12 08:29:43;;;;;;;170.63;47.25;;;;;;;1.83;100.00;103876.66;5348482;27;20019;-86
2022/01/12 08:32:17;;;;;;;150.98;45.63;;;;;;;1.99;100.00;103886.19;5348524;27;20118;-86
2022/01/12 08:34:48;;;;;;;187.23;49.17;;;;;;;1.93;100.00;103885.34;5347964;27;20111;-85
2022/01/12 08:37:20;;;;;;;161.40;48.25;;;;;;;1.96;100.00;103886.19;5349442;27;20024;-86
2022/01/12 08:39:54;;;;;;;201.02;47.97;;;;;;;1.96;100.00;103862.50;5348993;27;20055;-86
2022/01/12 08:42:28;;;;;;;209.98;48.90;;;;;;;2.05;100.00;103883.53;5347775;27;20031;-86
2022/01/12 08:45:01;;;;;;;169.55;47.15;;;;;;;2.11;100.00;103865.94;5348708;27;20020;-86
2022/01/12 08:47:33;;;;;;;216.02;51.97;;;;;;;2.17;100.00;103884.28;5348777;27;20031;-86
2022/01/12 08:50:05;;;;;;;197.75;50.17;;;;;;;2.20;100.00;103890.41;5359471;27;20053;-86
2022/01/12 08:52:37;;;;;;;217.35;49.40;;;;;;;2.24;100.00;103880.72;5361984;27;20229;-87
2022/01/12 08:55:08;;;;;;;199.70;49.05;;;;;;;2.12;100.00;103860.63;5347897;27;20110;-87
2022/01/12 08:57:42;;;;;;;216.38;49.95;;;;;;;2.43;100.00;103890.19;5347651;27;20011;-86
2022/01/12 09:00:15;;;;;;;309.45;53.70;;;;;;;2.39;100.00;103887.63;5348839;27;20023;-87
2022/01/12 09:02:47;;;;;;;197.18;50.45;;;;;;;2.45;100.00;103900.72;5348197;27;20308;-88
2022/01/12 09:05:18;;;;;;;208.38;50.35;;;;;;;2.35;100.00;103867.44;5337313;27;20561;-85
2022/01/12 09:07:52;;;;;;;193.57;50.20;;;;;;;2.50;100.00;103904.19;5311129;28;20028;-88
2022/01/12 09:10:23;;;;;;;335.75;55.53;;;;;;;2.55;100.00;103909.41;5328140;28;20081;-87
2022/01/12 09:12:55;;;;;;;215.98;47.95;;;;;;;2.65;100.00;103909.31;5327321;28;20040;-87
2022/01/12 09:15:27;;;;;;;165.70;49.03;;;;;;;2.76;100.00;103930.28;5309611;28;20484;-88
2022/01/12 09:17:58;;;;;;;147.55;44.65;;;;;;;2.75;100.00;103920.63;5327989;28;20536;-87
2022/01/12 09:20:30;;;;;;;169.60;45.53;;;;;;;2.89;100.00;103938.03;5327215;28;20050;-87
2022/01/12 09:23:02;;;;;;;147.93;45.05;;;;;;;2.91;100.00;103937.16;5328100;28;20027;-87
2022/01/12 09:25:36;;;;;;;139.18;45.83;;;;;;;2.92;100.00;103940.66;5309449;28;20040;-86
2022/01/12 09:28:09;;;;;;;161.60;44.13;;;;;;;2.94;100.00;103933.59;5326576;28;20081;-86
2022/01/12 09:30:40;;;;;;;193.80;46.20;;;;;;;2.90;100.00;103938.03;5326848;28;20036;-86
2022/01/12 09:33:12;;;;;;;159.35;43.47;;;;;;;3.03;100.00;103946.66;5311626;28;20031;-87
2022/01/12 09:35:45;;;;;;;154.18;44.70;;;;;;;2.83;100.00;103920.53;5337005;28;20024;-87
2022/01/12 09:38:18;;;;;;;266.50;48.03;;;;;;;3.03;100.00;103957.22;5344547;28;20024;-87
2022/01/12 09:41:02;;;;;;;185.75;41.13;;;;;;;3.15;100.00;103957.09;5327423;28;20016;-86
2022/01/12 09:43:36;;;;;;;147.20;38.55;;;;;;;2.98;100.00;103922.13;5320733;28;20552;-85
2022/01/12 09:46:08;;;;;;;116.38;33.80;;;;;;;2.94;100.00;103926.56;5335829;28;20016;-87
2022/01/12 09:48:40;;;;;;;105.95;32.08;;;;;;;3.21;100.00;103961.44;5320406;28;20067;-86
2022/01/12 09:51:15;;;;;;;113.78;31.20;;;;;;;3.19;100.00;103944.72;5327039;28;20404;-86
2022/01/12 09:53:49;;;;;;;180.40;34.60;;;;;;;3.16;100.00;103958.84;5326962;28;20024;-86
2022/01/12 09:56:24;;;;;;;114.60;33.60;;;;;;;3.24;100.00;103953.47;5327040;28;20020;-86
2022/01/12 09:58:58;;;;;;;149.27;32.40;;;;;;;3.21;100.00;103954.38;5325973;27;20032;-86
2022/01/12 10:01:39;;;;;;;120.13;30.88;;;;;;;3.31;100.00;103973.59;5308303;28;20028;-87
2022/01/12 10:04:39;;;;;;;124.50;31.60;;;;;;;3.32;100.00;103972.72;5325820;27;20078;-87
2022/01/12 10:07:11;;;;;;;191.57;33.65;;;;;;;3.12;100.00;103966.78;5308771;28;20036;-85
2022/01/12 10:09:46;;;;;;;123.50;30.65;;;;;;;3.28;100.00;103980.69;5325837;28;20445;-86
2022/01/12 10:12:21;;;;;;;163.98;33.20;;;;;;;3.25;100.00;103997.44;5325359;28;20036;-86
2022/01/12 10:14:59;;;;;;;186.55;33.25;;;;;;;3.28;100.00;104001.78;5290368;28;20058;-86
2022/01/12 10:17:39;;;;;;;270.02;35.38;;;;;;;3.23;100.00;103972.84;5326556;28;20530;-85
2022/01/12 10:20:14;;;;;;;108.57;28.58;;;;;;;3.29;100.00;103980.66;5325599;28;20320;-85
2022/01/12 10:23:00;;;;;;;197.35;33.25;;;;;;;3.28;100.00;103981.56;5306190;28;20032;-85
2022/01/12 10:25:32;;;;;;;188.75;30.95;;;;;;;3.30;100.00;103981.56;5325969;28;20020;-86
2022/01/12 10:28:18;;;;;;;196.73;32.80;;;;;;;3.31;100.00;103983.28;5307525;28;20426;-86
2022/01/12 10:31:02;;;;;;;227.93;32.55;;;;;;;3.30;100.00;103978.91;5302525;28;20044;-86
2022/01/12 10:33:36;;;;;;;173.43;28.83;;;;;;;3.13;100.00;103956.22;5306898;28;20020;-87
2022/01/12 10:36:10;;;;;;;184.40;28.73;;;;;;;3.22;100.00;103974.59;5325365;28;20028;-85
2022/01/12 10:38:41;;;;;;;209.85;29.48;;;;;;;3.23;100.00;103954.38;5306621;28;20027;-84
2022/01/12 10:41:15;;;;;;;196.68;31.48;;;;;;;3.30;100.00;103969.22;5307326;28;20016;-86
2022/01/12 10:43:49;;;;;;;152.18;29.40;;;;;;;3.33;100.00;103979.75;5307250;28;20050;-86
2022/01/12 10:46:20;;;;;;;165.40;29.33;;;;;;;3.30;100.00;103987.69;5322682;28;20028;-86
2022/01/12 10:48:56;;;;;;;216.57;30.70;;;;;;;3.20;100.00;103975.50;5307511;28;20086;-86
2022/01/12 10:51:31;;;;;;;240.93;32.47;;;;;;;3.25;100.00;103980.75;5307379;28;20074;-87
2022/01/12 10:54:04;;;;;;;306.00;33.42;;;;;;;3.21;100.00;103974.63;5326013;28;20013;-86
2022/01/12 10:56:35;;;;;;;108.15;31.80;;;;;;;3.12;100.00;103948.34;5307039;28;20028;-86
2022/01/12 10:59:14;;;;;;;163.07;32.42;;;;;;;3.34;100.00;103978.84;5325204;28;20032;-86
2022/01/12 11:01:47;;;;;;;116.90;32.38;;;;;;;3.36;100.00;103984.97;5324807;28;20363;-86
2022/01/12 11:04:21;;;;;;;128.40;30.52;;;;;;;3.37;100.00;103988.50;5325346;27;20036;-87
2022/01/12 11:06:53;;;;;;;199.02;32.58;;;;;;;3.21;100.00;103975.50;5305754;28;20102;-86
2022/01/12 11:09:25;;;;;;;119.35;32.72;;;;;;;3.36;100.00;103992.03;5325346;28;20020;-86
2022/01/12 11:12:00;;;;;;;125.57;30.55;;;;;;;3.26;100.00;103959.63;5310576;28;20040;-86
2022/01/12 11:14:31;;;;;;;97.13;31.05;;;;;;;3.37;100.00;103972.69;5331826;28;20021;-87
2022/01/12 11:17:03;;;;;;;102.95;32.78;;;;;;;3.40;100.00;103989.34;5339700;28;20024;-87
2022/01/12 11:19:36;;;;;;;78.50;29.13;;;;;;;3.39;100.00;103971.75;5314986;28;20048;-87
2022/01/12 11:22:28;;;;;;;85.65;30.85;;;;;;;3.58;100.00;103977.66;5332668;28;20035;-87
2022/01/12 11:25:00;;;;;;;87.78;31.45;;;;;;;3.53;100.00;103973.34;5318267;28;20036;-87
2022/01/12 11:27:31;;;;;;;79.80;29.58;;;;;;;3.62;100.00;103994.34;5312863;28;20555;-86
2022/01/12 11:30:03;;;;;;;93.22;31.65;;;;;;;3.43;100.00;103972.59;5332527;28;20379;-86
2022/01/12 11:32:35;;;;;;;74.15;29.48;;;;;;;3.24;100.00;103979.84;5310107;28;20043;-87
2022/01/12 11:35:06;;;;;;;73.57;30.20;;;;;;;3.31;100.00;103992.06;5329301;28;20024;-88
2022/01/12 11:37:48;;;;;;;76.82;29.05;;;;;;;3.50;100.00;103997.13;5333276;28;20020;-87
2022/01/12 11:40:40;;;;;;;70.35;27.60;;;;;;;3.55;100.00;103990.03;5316544;28;20028;-88
2022/01/12 11:43:27;;;;;;;77.80;30.95;;;;;;;3.52;100.00;103987.44;5321298;28;20024;-87
2022/01/12 11:46:16;;;;;;;78.18;29.38;;;;;;;3.78;100.00;103993.22;5339559;28;20016;-85
2022/01/12 11:48:53;;;;;;;68.97;28.67;;;;;;;3.73;100.00;103981.00;5336936;28;20020;-85
2022/01/12 11:51:43;;;;;;;65.05;26.92;;;;;;;3.90;100.00;103986.03;5315150;28;20067;-86
2022/01/12 11:54:18;;;;;;;76.10;29.63;;;;;;;3.86;100.00;103979.94;5316828;28;20135;-86
2022/01/12 11:56:52;;;;;;;70.95;29.15;;;;;;;3.75;100.00;103956.34;5310819;28;20056;-86
2022/01/12 11:59:26;;;;;;;79.50;30.33;;;;;;;4.04;100.00;103980.56;5327780;28;20023;-86
2022/01/12 12:02:11;;;;;;;73.60;28.85;;;;;;;4.06;100.00;103977.00;5314243;28;20024;-87
2022/01/12 12:05:19;;;;;;;71.07;29.48;;;;;;;3.96;100.00;103962.16;5313561;27;20043;-86
2022/01/12 12:08:02;;;;;;;64.05;26.15;;;;;;;4.03;100.00;103992.88;5338181;27;20112;-86
2022/01/12 12:10:35;;;;;;;67.95;29.95;;;;;;;3.87;100.00;103980.81;5348592;27;20045;-86
2022/01/12 12:13:11;;;;;;;72.82;29.00;;;;;;;3.88;100.00;103982.56;5348995;27;20062;-86
2022/01/12 12:15:42;;;;;;;78.20;31.48;;;;;;;3.97;100.00;103987.69;5349899;27;20027;-86
2022/01/12 12:18:16;;;;;;;77.70;30.65;;;;;;;3.97;100.00;103987.69;5350296;27;20016;-88
2022/01/12 12:20:48;;;;;;;65.10;28.25;;;;;;;3.85;100.00;103988.75;5350394;27;20114;-88
2022/01/12 12:23:22;;;;;;;60.67;26.48;;;;;;;3.77;100.00;103956.31;5350469;27;20106;-87
2022/01/12 12:25:55;;;;;;;70.15;29.15;;;;;;;3.86;100.00;103989.63;5348119;27;20119;-87
2022/01/12 12:28:26;;;;;;;63.60;27.52;;;;;;;3.84;100.00;103975.56;5351110;27;20430;-88
2022/01/12 12:30:58;;;;;;;60.83;26.63;;;;;;;3.78;100.00;103973.88;5366499;27;20137;-87
2022/01/12 12:33:29;;;;;;;66.68;29.27;;;;;;;3.91;100.00;103977.22;5349683;27;20072;-87
2022/01/12 12:36:03;;;;;;;74.80;30.13;;;;;;;4.03;100.00;103982.31;5350508;27;20480;-87
2022/01/12 12:38:35;;;;;;;71.07;28.75;;;;;;;3.87;100.00;103959.66;5347753;27;20035;-86
2022/01/12 12:41:06;;;;;;;59.20;28.00;;;;;;;3.88;100.00;103969.34;5349753;27;20027;-87
2022/01/12 12:43:41;;;;;;;64.22;28.52;;;;;;;3.91;100.00;103982.50;5350211;27;20038;-87
2022/01/12 12:46:14;;;;;;;60.05;25.27;;;;;;;3.70;100.00;103955.53;5348564;27;20047;-86